Time;durP1;ratioP1;P1;durP2;ratioP2;P2;SDS_P1;SDS_P2;PMS_P1;PMS_P2;Temp;Humidity;BMP_temperature;BMP_pressure;BME280_temperature;BME280_humidity;BME280_pressure;Samples;Min_cycle;Max_cycle;Signal;HPM_P1;HPM_P2
2022/11/02 00:02:07;;;;;;;11.43;1.35;;;12.90;99.90;;;;;;4967632;28;20057;-76
2022/11/02 00:04:33;;;;;;;8.13;0.88;;;12.70;99.90;;;;;;4947981;28;20580;-75
2022/11/02 00:06:59;;;;;;;9.25;0.70;;;12.70;99.90;;;;;;4966358;28;20746;-76
2022/11/02 00:09:24;;;;;;;10.10;0.80;;;12.90;99.90;;;;;;4948349;28;20710;-75
2022/11/02 00:11:50;;;;;;;12.50;0.90;;;12.90;99.90;;;;;;4949616;28;21125;-74
2022/11/02 00:14:16;;;;;;;9.38;0.80;;;12.90;99.90;;;;;;4966179;28;20166;-75
2022/11/02 00:16:41;;;;;;;7.85;0.95;;;12.70;99.90;;;;;;4949802;28;20058;-77
2022/11/02 00:19:08;;;;;;;8.13;0.65;;;12.70;99.90;;;;;;4949303;28;20049;-75
2022/11/02 00:21:35;;;;;;;10.05;0.95;;;12.60;99.90;;;;;;4966684;28;20046;-75
2022/11/02 00:24:01;;;;;;;6.43;0.60;;;12.70;99.90;;;;;;4964119;28;20049;-75
2022/11/02 00:26:28;;;;;;;9.90;0.70;;;12.80;99.90;;;;;;4965958;28;20709;-74
2022/11/02 00:28:54;;;;;;;7.03;0.93;;;12.70;99.90;;;;;;4966496;28;20042;-74
2022/11/02 00:31:19;;;;;;;10.13;1.23;;;12.60;99.90;;;;;;4965552;28;20046;-76
2022/11/02 00:33:45;;;;;;;9.50;0.80;;;12.70;99.90;;;;;;4967741;28;20105;-80
2022/11/02 00:36:11;;;;;;;11.32;0.82;;;12.50;99.90;;;;;;4965854;28;20049;-75
2022/11/02 00:38:37;;;;;;;5.85;0.60;;;12.50;99.90;;;;;;4966691;28;20202;-74
2022/11/02 00:41:02;;;;;;;8.98;0.73;;;12.50;99.90;;;;;;4966666;28;20213;-74
2022/11/02 00:43:28;;;;;;;7.30;1.00;;;12.50;99.90;;;;;;4948158;28;20042;-75
2022/11/02 00:45:54;;;;;;;9.15;0.82;;;12.20;99.90;;;;;;4966041;28;20763;-74
2022/11/02 00:48:19;;;;;;;10.63;0.82;;;12.40;99.90;;;;;;4966218;28;20594;-75
2022/11/02 00:50:45;;;;;;;6.93;0.55;;;12.40;99.90;;;;;;4966964;28;20104;-72
2022/11/02 00:53:11;;;;;;;4.78;0.93;;;12.10;99.90;;;;;;4968858;28;20050;-72
2022/11/02 00:55:36;;;;;;;5.63;0.60;;;12.20;99.90;;;;;;4965862;28;20105;-73
2022/11/02 00:58:02;;;;;;;7.70;0.50;;;11.80;99.90;;;;;;4966926;28;20038;-73
2022/11/02 01:00:28;;;;;;;9.98;0.70;;;11.40;99.90;;;;;;4965630;28;20050;-75
2022/11/02 01:02:53;;;;;;;5.47;0.43;;;11.10;99.90;;;;;;4947941;28;20133;-73
2022/11/02 01:05:19;;;;;;;5.50;0.50;;;11.50;99.90;;;;;;4965116;28;20070;-74
2022/11/02 01:07:45;;;;;;;4.45;0.40;;;10.90;99.90;;;;;;4965138;28;20041;-73
2022/11/02 01:10:11;;;;;;;7.25;0.70;;;10.90;99.90;;;;;;4965995;28;20058;-74
2022/11/02 01:12:38;;;;;;;3.80;0.45;;;11.20;99.90;;;;;;4964519;28;20058;-74
2022/11/02 01:15:06;;;;;;;10.02;0.50;;;11.10;99.90;;;;;;4965192;28;20522;-73
2022/11/02 01:17:31;;;;;;;7.53;0.55;;;10.70;99.90;;;;;;4948535;28;20088;-74
2022/11/02 01:19:57;;;;;;;6.00;0.50;;;10.70;99.90;;;;;;4966368;28;20125;-75
2022/11/02 01:22:23;;;;;;;3.40;0.45;;;10.80;99.90;;;;;;4964424;28;20915;-74
2022/11/02 01:24:48;;;;;;;8.82;0.65;;;11.10;99.90;;;;;;4948519;28;20712;-76
2022/11/02 01:27:14;;;;;;;4.18;0.40;;;11.10;99.90;;;;;;4966611;28;20072;-73
2022/11/02 01:29:39;;;;;;;5.80;0.40;;;10.60;99.90;;;;;;4966823;28;20057;-73
2022/11/02 01:32:05;;;;;;;3.42;0.40;;;11.00;99.90;;;;;;4963965;28;20583;-74
2022/11/02 01:34:31;;;;;;;3.72;0.30;;;10.50;99.90;;;;;;4965251;28;20050;-74
2022/11/02 01:36:56;;;;;;;3.05;0.20;;;10.90;99.90;;;;;;4967131;28;20042;-76
2022/11/02 01:39:22;;;;;;;4.45;0.40;;;10.40;99.90;;;;;;4968441;28;20055;-73
2022/11/02 01:41:52;;;;;;;2.63;0.30;;;10.40;99.90;;;;;;4969078;28;20054;-75
2022/11/02 01:44:33;;;;;;;1.95;0.20;;;10.30;99.90;;;;;;4970865;28;20050;-72
2022/11/02 01:46:59;;;;;;;3.00;0.40;;;10.30;99.90;;;;;;4970329;28;20050;-73
2022/11/02 01:49:26;;;;;;;3.95;0.30;;;10.80;99.90;;;;;;4969939;28;20077;-76
2022/11/02 01:52:14;;;;;;;1.80;0.20;;;10.30;99.90;;;;;;4955641;28;20165;-75
2022/11/02 01:54:51;;;;;;;3.17;0.32;;;10.80;99.90;;;;;;4968476;28;20386;-73
2022/11/02 01:57:20;;;;;;;1.73;0.20;;;10.70;99.90;;;;;;4970314;28;20058;-76
2022/11/02 01:59:49;;;;;;;2.50;0.20;;;10.60;99.90;;;;;;4968648;28;20046;-75
2022/11/02 02:02:18;;;;;;;3.33;0.45;;;10.10;99.90;;;;;;4968804;28;20042;-76
2022/11/02 02:04:48;;;;;;;2.25;0.20;;;10.60;99.90;;;;;;4969561;28;20549;-74
2022/11/02 02:07:14;;;;;;;2.10;0.20;;;10.10;99.90;;;;;;4968565;28;20712;-75
2022/11/02 02:09:40;;;;;;;2.78;0.20;;;10.20;99.90;;;;;;4966768;28;20053;-75
2022/11/02 02:12:06;;;;;;;2.70;0.20;;;10.20;99.90;;;;;;4967874;28;20085;-76
2022/11/02 02:14:33;;;;;;;2.47;0.20;;;10.40;99.90;;;;;;4968195;28;20500;-76
2022/11/02 02:17:36;;;;;;;2.92;0.25;;;10.30;99.90;;;;;;4968858;28;20046;-74
2022/11/02 02:20:45;;;;;;;3.05;0.22;;;10.30;99.90;;;;;;4967608;28;20082;-77
2022/11/02 02:23:16;;;;;;;3.42;0.30;;;10.70;99.90;;;;;;4938793;28;20569;-73
2022/11/02 02:26:16;;;;;;;2.83;0.20;;;10.50;99.90;;;;;;4969545;28;20042;-75
2022/11/02 02:28:57;;;;;;;3.42;0.20;;;10.80;99.90;;;;;;4966974;28;20064;-76
2022/11/02 02:31:30;;;;;;;2.15;0.40;;;10.50;99.90;;;;;;4969362;28;20234;-75
2022/11/02 02:34:08;;;;;;;3.42;0.40;;;10.40;99.90;;;;;;4967548;28;20611;-75
2022/11/02 02:36:46;;;;;;;3.38;0.30;;;10.40;99.90;;;;;;4967755;28;20046;-78
2022/11/02 02:39:45;;;;;;;4.05;0.38;;;10.90;99.90;;;;;;4968250;28;20057;-75
2022/11/02 02:42:30;;;;;;;3.38;0.40;;;10.30;99.90;;;;;;4967596;28;20101;-77
2022/11/02 02:45:14;;;;;;;4.10;0.30;;;10.20;99.90;;;;;;4967466;28;21793;-74
2022/11/02 02:47:48;;;;;;;3.03;0.50;;;10.70;99.90;;;;;;4968420;28;20172;-77
2022/11/02 02:50:18;;;;;;;4.25;0.70;;;10.20;99.90;;;;;;4967501;28;20573;-74
2022/11/02 02:52:47;;;;;;;4.70;0.73;;;10.30;99.90;;;;;;4967467;28;20136;-73
2022/11/02 02:55:17;;;;;;;7.30;0.60;;;10.60;99.90;;;;;;4967318;28;20048;-73
2022/11/02 02:57:45;;;;;;;9.18;0.80;;;10.00;99.90;;;;;;4969093;28;20050;-77
2022/11/02 03:00:16;;;;;;;5.50;0.63;;;10.00;99.90;;;;;;4968426;28;20314;-75
2022/11/02 03:02:59;;;;;;;8.68;1.20;;;9.90;99.90;;;;;;4953075;28;20434;-75
2022/11/02 03:05:31;;;;;;;9.13;1.30;;;10.20;99.90;;;;;;4967430;28;20578;-76
2022/11/02 03:08:05;;;;;;;13.65;1.70;;;10.50;99.90;;;;;;4967118;28;20101;-76
2022/11/02 03:10:39;;;;;;;9.95;1.45;;;10.40;99.90;;;;;;4965880;28;20321;-75
2022/11/02 03:13:17;;;;;;;10.98;1.52;;;10.20;99.90;;;;;;4967233;28;20150;-74
2022/11/02 03:16:00;;;;;;;14.73;1.63;;;10.30;99.90;;;;;;4967407;28;20101;-74
2022/11/02 03:18:29;;;;;;;11.02;1.77;;;10.50;99.90;;;;;;4967098;28;20073;-74
2022/11/02 03:21:00;;;;;;;9.05;1.38;;;10.50;99.90;;;;;;4968085;28;20049;-74
2022/11/02 03:23:40;;;;;;;10.07;0.80;;;10.60;99.90;;;;;;4967617;28;20539;-78
2022/11/02 03:26:30;;;;;;;9.93;1.45;;;10.60;99.90;;;;;;4968314;28;20590;-74
2022/11/02 03:29:05;;;;;;;6.90;0.80;;;10.60;99.90;;;;;;4981920;28;20054;-78
2022/11/02 03:31:53;;;;;;;8.07;0.77;;;10.80;99.90;;;;;;4966529;28;20097;-73
2022/11/02 03:34:39;;;;;;;5.30;0.47;;;11.10;99.90;;;;;;4967028;28;20600;-77
2022/11/02 03:37:21;;;;;;;8.50;0.70;;;10.70;99.90;;;;;;4949914;28;20085;-73
2022/11/02 03:39:53;;;;;;;6.00;0.38;;;11.00;99.90;;;;;;4950941;28;20057;-74
2022/11/02 03:42:22;;;;;;;7.38;0.50;;;10.60;99.90;;;;;;4969258;28;20046;-74
2022/11/02 03:44:53;;;;;;;6.88;0.40;;;10.70;99.90;;;;;;4968720;28;20035;-73
2022/11/02 03:47:21;;;;;;;3.85;0.40;;;10.90;99.90;;;;;;4967520;28;20058;-73
2022/11/02 03:49:49;;;;;;;5.45;0.30;;;10.80;99.90;;;;;;4966701;28;20038;-74
2022/11/02 03:52:20;;;;;;;6.38;0.40;;;10.90;99.90;;;;;;4957652;28;20121;-74
2022/11/02 03:55:01;;;;;;;4.45;0.40;;;10.60;99.90;;;;;;4968034;28;20038;-75
2022/11/02 03:57:39;;;;;;;4.80;0.40;;;10.70;99.90;;;;;;4967041;28;20832;-74
2022/11/02 04:00:16;;;;;;;6.20;0.45;;;10.80;99.90;;;;;;4965474;28;20053;-76
2022/11/02 04:02:46;;;;;;;5.57;0.60;;;11.00;99.90;;;;;;4954997;28;20050;-74
2022/11/02 04:05:11;;;;;;;5.28;0.40;;;10.70;99.90;;;;;;4967414;28;20042;-78
2022/11/02 04:10:25;;;;;;;5.43;0.40;;;10.80;99.90;;;;;;4969233;28;20145;-74
2022/11/02 04:15:35;;;;;;;6.57;0.52;;;11.00;99.90;;;;;;4970924;28;20077;-74
2022/11/02 04:20:49;;;;;;;5.88;0.52;;;10.70;99.90;;;;;;4955634;28;20137;-74
2022/11/02 04:26:00;;;;;;;6.82;0.50;;;10.70;99.90;;;;;;4969891;28;20608;-73
2022/11/02 04:28:26;;;;;;;6.22;0.40;;;10.60;99.90;;;;;;4968631;28;20054;-76
2022/11/02 04:30:52;;;;;;;11.05;0.90;;;10.90;99.90;;;;;;4952010;28;20042;-73
2022/11/02 04:33:33;;;;;;;8.20;0.85;;;11.00;99.90;;;;;;4951802;28;20046;-75
2022/11/02 04:36:05;;;;;;;5.95;0.40;;;10.90;99.90;;;;;;4969595;28;20145;-75
2022/11/02 04:38:40;;;;;;;8.07;1.00;;;10.60;99.90;;;;;;4969128;28;20286;-72
2022/11/02 04:43:55;;;;;;;10.90;0.57;;;10.90;99.90;;;;;;4969461;28;20689;-74
2022/11/02 04:46:22;;;;;;;6.90;0.60;;;10.80;99.90;;;;;;4968078;28;20050;-74
2022/11/02 04:48:48;;;;;;;8.00;0.60;;;11.10;99.90;;;;;;4968977;28;20398;-75
2022/11/02 04:51:14;;;;;;;11.93;0.60;;;11.10;99.90;;;;;;4968863;28;20038;-73
2022/11/02 04:53:40;;;;;;;6.88;0.70;;;10.90;99.90;;;;;;4968284;28;20046;-74
2022/11/02 04:56:07;;;;;;;8.88;0.73;;;11.10;99.90;;;;;;4967809;28;20799;-77
2022/11/02 04:58:33;;;;;;;8.27;0.70;;;11.00;99.90;;;;;;4969526;28;20133;-77
2022/11/02 05:01:07;;;;;;;6.97;0.45;;;11.20;99.90;;;;;;4969940;28;20046;-73
2022/11/02 05:03:33;;;;;;;7.63;0.80;;;11.00;99.90;;;;;;4951391;28;20070;-75
2022/11/02 05:05:59;;;;;;;6.95;0.50;;;11.00;99.90;;;;;;4967684;28;20113;-73
2022/11/02 05:08:24;;;;;;;8.55;1.05;;;11.00;99.90;;;;;;4965947;28;20527;-75
2022/11/02 05:10:56;;;;;;;11.20;1.10;;;10.90;99.90;;;;;;4965157;28;20246;-74
2022/11/02 05:13:23;;;;;;;7.20;0.70;;;11.10;99.90;;;;;;4966113;28;20481;-73
2022/11/02 05:15:49;;;;;;;6.03;0.60;;;10.70;99.90;;;;;;4966032;28;20112;-74
2022/11/02 05:18:15;;;;;;;8.98;0.77;;;10.60;99.90;;;;;;4966131;28;20042;-76
2022/11/02 05:20:41;;;;;;;15.00;1.27;;;10.90;99.90;;;;;;4967371;28;20057;-74
2022/11/02 05:23:07;;;;;;;7.20;0.60;;;10.60;99.90;;;;;;4966772;28;20042;-73
2022/11/02 05:25:32;;;;;;;11.23;0.95;;;10.90;99.90;;;;;;4966197;28;20050;-78
2022/11/02 05:27:58;;;;;;;8.40;1.00;;;10.60;99.90;;;;;;4966781;28;20145;-75
2022/11/02 05:30:24;;;;;;;8.23;0.75;;;10.90;99.90;;;;;;4966559;28;20621;-76
2022/11/02 05:32:54;;;;;;;9.57;1.10;;;10.60;99.90;;;;;;4965278;28;20817;-74
2022/11/02 05:35:19;;;;;;;7.97;1.00;;;10.70;99.90;;;;;;4965255;28;20058;-73
2022/11/02 05:37:45;;;;;;;6.57;0.98;;;10.90;99.90;;;;;;4966099;28;20680;-73
2022/11/02 05:40:11;;;;;;;6.10;0.85;;;10.90;99.90;;;;;;4966093;28;20162;-74
2022/11/02 05:42:36;;;;;;;7.03;0.80;;;10.90;99.90;;;;;;4966280;28;20038;-73
2022/11/02 05:45:02;;;;;;;9.30;0.98;;;10.50;99.90;;;;;;4966743;28;20084;-74
2022/11/02 05:47:28;;;;;;;6.80;0.77;;;10.70;99.90;;;;;;4966519;28;20053;-75
2022/11/02 05:49:54;;;;;;;9.57;1.10;;;10.90;99.90;;;;;;4964587;28;20050;-77
2022/11/02 05:52:19;;;;;;;7.35;0.90;;;10.80;99.90;;;;;;4966889;28;20050;-74
2022/11/02 05:54:45;;;;;;;8.55;1.02;;;10.70;99.90;;;;;;4967428;28;20053;-76
2022/11/02 05:57:11;;;;;;;10.15;1.30;;;10.80;99.90;;;;;;4969138;28;20046;-72
2022/11/02 05:59:36;;;;;;;9.38;0.70;;;10.60;99.90;;;;;;4967796;28;20141;-73
2022/11/02 06:02:02;;;;;;;7.25;0.90;;;10.50;99.90;;;;;;4951411;28;20038;-75
2022/11/02 06:04:28;;;;;;;10.13;1.15;;;10.80;99.90;;;;;;4967123;28;20046;-74
2022/11/02 06:06:53;;;;;;;11.00;1.10;;;10.70;99.90;;;;;;4967241;28;20132;-75
2022/11/02 06:09:19;;;;;;;8.48;1.23;;;10.40;99.90;;;;;;4956267;28;20050;-74
2022/11/02 06:11:45;;;;;;;11.18;1.27;;;10.50;99.90;;;;;;4950341;28;21204;-74
2022/11/02 06:14:10;;;;;;;6.10;0.80;;;10.40;99.90;;;;;;4968641;28;20051;-75
2022/11/02 06:16:36;;;;;;;6.35;0.85;;;10.50;99.90;;;;;;4969007;28;20522;-72
2022/11/02 06:19:02;;;;;;;10.30;1.10;;;10.30;99.90;;;;;;4950309;28;20038;-73
2022/11/02 06:21:27;;;;;;;6.10;1.35;;;10.70;99.90;;;;;;4965996;28;20558;-76
2022/11/02 06:23:53;;;;;;;8.95;1.20;;;10.40;99.90;;;;;;4966972;28;20046;-73
2022/11/02 06:26:19;;;;;;;7.35;0.90;;;10.50;99.90;;;;;;4968952;28;20090;-72
2022/11/02 06:28:44;;;;;;;14.77;1.67;;;10.80;99.90;;;;;;4951562;28;20046;-73
2022/11/02 06:31:10;;;;;;;11.65;1.77;;;10.50;99.90;;;;;;4969755;28;20532;-72
2022/11/02 06:33:36;;;;;;;10.93;0.90;;;11.00;99.90;;;;;;4969164;28;20518;-73
2022/11/02 06:36:02;;;;;;;14.65;1.30;;;10.70;99.90;;;;;;4969755;28;20081;-73
2022/11/02 06:38:28;;;;;;;5.90;0.70;;;10.90;99.90;;;;;;4968941;28;20049;-75
2022/11/02 06:41:05;;;;;;;11.73;1.60;;;11.10;99.90;;;;;;4968413;28;20046;-75
2022/11/02 06:43:32;;;;;;;10.80;0.90;;;10.90;99.90;;;;;;4969250;28;20046;-75
2022/11/02 06:45:58;;;;;;;9.45;0.85;;;10.90;99.90;;;;;;4967887;28;20050;-76
2022/11/02 06:48:25;;;;;;;14.20;1.75;;;10.80;99.90;;;;;;4968141;28;20054;-76
2022/11/02 06:50:51;;;;;;;5.40;1.10;;;10.70;99.90;;;;;;4967539;28;20734;-73
2022/11/02 06:53:17;;;;;;;12.82;1.13;;;10.80;99.90;;;;;;4966753;28;20156;-72
2022/11/02 06:55:43;;;;;;;10.75;1.38;;;10.60;99.90;;;;;;4969179;28;20410;-73
2022/11/02 06:58:09;;;;;;;13.50;1.40;;;10.60;99.90;;;;;;4969104;28;20054;-74
2022/11/02 07:00:35;;;;;;;13.90;1.35;;;10.70;99.90;;;;;;4967845;28;20392;-72
2022/11/02 07:03:09;;;;;;;10.27;1.40;;;10.90;99.90;;;;;;4969908;28;20050;-70
2022/11/02 07:05:35;;;;;;;15.52;1.40;;;11.00;99.90;;;;;;4969915;28;20070;-72
2022/11/02 07:08:02;;;;;;;11.82;1.00;;;10.70;99.90;;;;;;4967337;28;20045;-72
2022/11/02 07:10:28;;;;;;;12.45;1.20;;;10.80;99.90;;;;;;4968613;28;20309;-72
2022/11/02 07:12:55;;;;;;;8.95;0.82;;;10.90;99.90;;;;;;4969028;28;20504;-72
2022/11/02 07:15:23;;;;;;;10.55;1.20;;;10.60;99.90;;;;;;4968812;28;20050;-71
2022/11/02 07:17:48;;;;;;;9.90;1.10;;;10.20;99.90;;;;;;4971107;28;20057;-71
2022/11/02 07:20:14;;;;;;;11.90;1.25;;;10.20;99.90;;;;;;4953815;28;20561;-73
2022/11/02 07:22:40;;;;;;;9.85;1.02;;;10.70;99.90;;;;;;4972683;28;20800;-72
2022/11/02 07:25:06;;;;;;;7.30;0.95;;;10.80;99.90;;;;;;4972806;28;20039;-73
2022/11/02 07:27:38;;;;;;;14.10;1.20;;;10.80;99.90;;;;;;4969062;28;20056;-73
2022/11/02 07:30:04;;;;;;;8.57;0.98;;;10.40;99.90;;;;;;4968738;28;20042;-74
2022/11/02 07:32:30;;;;;;;8.27;0.82;;;10.90;99.90;;;;;;4968339;28;20057;-73
2022/11/02 07:34:55;;;;;;;10.57;1.20;;;10.50;99.90;;;;;;4968664;28;20050;-77
2022/11/02 07:37:21;;;;;;;13.23;1.13;;;10.50;99.90;;;;;;4970569;28;20046;-73
2022/11/02 07:39:47;;;;;;;9.43;1.27;;;11.10;99.90;;;;;;4968991;28;20701;-73
2022/11/02 07:42:12;;;;;;;9.02;1.02;;;10.90;99.90;;;;;;4969626;28;20046;-76
2022/11/02 07:44:38;;;;;;;11.95;1.05;;;10.80;99.90;;;;;;4969577;28;20650;-71
2022/11/02 07:47:04;;;;;;;10.98;1.10;;;11.20;99.90;;;;;;4969102;28;20046;-72
2022/11/02 07:49:29;;;;;;;13.32;1.13;;;10.80;99.90;;;;;;4939107;28;20054;-73
2022/11/02 07:51:55;;;;;;;11.55;0.90;;;10.90;99.90;;;;;;4969650;28;20054;-73
2022/11/02 07:54:21;;;;;;;12.73;1.20;;;10.80;99.90;;;;;;4971394;28;20050;-73
2022/11/02 07:56:47;;;;;;;12.27;1.25;;;10.90;99.90;;;;;;4969976;28;20077;-72
2022/11/02 07:59:12;;;;;;;17.83;1.23;;;11.30;99.90;;;;;;4968003;28;20837;-75
2022/11/02 08:01:38;;;;;;;10.13;0.88;;;11.00;99.90;;;;;;4967749;28;20141;-72
2022/11/02 08:04:04;;;;;;;13.90;1.60;;;11.30;99.90;;;;;;4969025;28;20266;-73
2022/11/02 08:06:29;;;;;;;7.80;0.90;;;11.50;99.90;;;;;;4967769;28;20097;-73
2022/11/02 08:08:55;;;;;;;9.43;0.88;;;11.50;99.90;;;;;;4969405;28;20046;-75
2022/11/02 08:11:21;;;;;;;11.77;0.93;;;11.50;99.90;;;;;;4967459;28;20061;-73
2022/11/02 08:13:46;;;;;;;10.38;0.75;;;11.40;99.90;;;;;;4966898;28;20050;-72
2022/11/02 08:16:12;;;;;;;10.23;0.70;;;11.40;99.90;;;;;;4968554;28;20148;-73
2022/11/02 08:18:38;;;;;;;10.40;0.80;;;11.20;99.90;;;;;;4968977;28;20834;-74
2022/11/02 08:21:04;;;;;;;9.57;0.80;;;11.40;99.90;;;;;;4967817;28;20046;-71
2022/11/02 08:23:29;;;;;;;7.97;0.52;;;11.50;99.90;;;;;;4969193;28;20984;-73
2022/11/02 08:25:59;;;;;;;7.45;0.70;;;11.50;99.90;;;;;;4966282;28;20050;-72
2022/11/02 08:28:27;;;;;;;8.07;0.52;;;11.60;99.90;;;;;;4967605;28;20089;-73
2022/11/02 08:30:53;;;;;;;8.82;0.60;;;11.90;99.90;;;;;;4967576;28;20046;-72
2022/11/02 08:33:20;;;;;;;9.00;0.95;;;11.80;99.90;;;;;;4967985;28;20627;-72
2022/11/02 08:35:47;;;;;;;6.75;0.73;;;11.90;99.90;;;;;;4950982;28;20045;-72
2022/11/02 08:38:13;;;;;;;6.60;0.40;;;12.30;99.90;;;;;;4969030;28;20128;-74
2022/11/02 08:40:39;;;;;;;7.28;0.60;;;12.00;99.90;;;;;;4968209;28;20670;-72
2022/11/02 08:43:13;;;;;;;7.72;0.63;;;12.00;99.90;;;;;;4968346;28;20057;-72
2022/11/02 08:45:41;;;;;;;7.10;0.50;;;12.30;99.90;;;;;;4967765;28;20476;-72
2022/11/02 08:48:07;;;;;;;6.75;0.52;;;12.70;99.90;;;;;;4950413;28;20042;-75
2022/11/02 08:50:34;;;;;;;8.38;0.70;;;12.70;99.90;;;;;;4969264;28;20126;-73
2022/11/02 08:52:59;;;;;;;7.70;0.50;;;12.40;99.90;;;;;;4968815;28;20340;-73
2022/11/02 08:55:25;;;;;;;6.97;0.55;;;12.70;99.90;;;;;;4968034;28;20529;-74
2022/11/02 08:57:56;;;;;;;5.95;0.50;;;12.80;99.90;;;;;;4967569;28;20066;-74
2022/11/02 09:00:24;;;;;;;6.78;0.70;;;13.00;99.90;;;;;;4980314;28;20046;-74
2022/11/02 09:03:04;;;;;;;7.20;0.50;;;13.00;99.90;;;;;;4971348;28;20721;-73
2022/11/02 09:05:42;;;;;;;4.95;0.40;;;12.80;99.90;;;;;;4969268;28;20750;-73
2022/11/02 09:08:16;;;;;;;6.00;0.47;;;12.60;99.90;;;;;;4970498;28;20129;-73
2022/11/02 09:10:43;;;;;;;7.75;0.43;;;12.30;99.90;;;;;;4970269;28;20126;-73
2022/11/02 09:13:11;;;;;;;10.00;0.73;;;12.20;99.90;;;;;;4971181;28;20038;-72
2022/11/02 09:15:38;;;;;;;9.07;0.90;;;12.20;99.90;;;;;;4970183;28;20109;-76
2022/11/02 09:18:05;;;;;;;7.70;0.90;;;11.80;99.90;;;;;;4970771;28;20136;-74
2022/11/02 09:20:32;;;;;;;9.80;0.70;;;11.90;99.90;;;;;;4968827;28;20550;-73
2022/11/02 09:22:57;;;;;;;8.45;0.80;;;11.80;99.90;;;;;;4969550;28;20058;-75
2022/11/02 09:25:23;;;;;;;6.60;0.57;;;11.80;99.90;;;;;;4971039;28;20046;-74
2022/11/02 09:27:53;;;;;;;6.65;0.57;;;11.80;99.90;;;;;;4968681;28;20058;-74
2022/11/02 09:30:20;;;;;;;9.90;0.75;;;11.80;99.90;;;;;;4968609;28;20049;-73
2022/11/02 09:32:55;;;;;;;9.07;0.80;;;12.00;99.90;;;;;;4970153;28;20115;-73
2022/11/02 09:35:22;;;;;;;10.23;0.93;;;12.40;99.90;;;;;;4970156;28;20563;-73
2022/11/02 09:37:48;;;;;;;10.02;0.63;;;12.70;99.90;;;;;;4971374;28;20042;-72
2022/11/02 09:40:19;;;;;;;9.00;0.85;;;13.20;99.90;;;;;;4970550;28;20042;-74
2022/11/02 09:43:07;;;;;;;6.15;0.68;;;13.40;99.90;;;;;;4968822;28;20042;-74
2022/11/02 09:45:52;;;;;;;11.50;1.02;;;13.80;99.90;;;;;;4969295;28;20047;-72
2022/11/02 09:48:24;;;;;;;9.68;0.70;;;14.20;99.90;;;;;;4970713;28;20827;-76
2022/11/02 09:51:00;;;;;;;9.20;0.98;;;14.40;99.90;;;;;;4969323;28;20047;-73
2022/11/02 09:53:40;;;;;;;10.23;0.90;;;14.20;99.90;;;;;;4970903;28;20505;-74
2022/11/02 09:56:07;;;;;;;6.75;0.60;;;14.50;99.90;;;;;;4973120;28;20050;-73
2022/11/02 09:58:37;;;;;;;10.07;0.80;;;14.60;99.90;;;;;;4975857;28;20054;-77
2022/11/02 10:01:33;;;;;;;9.50;0.93;;;14.80;99.90;;;;;;4975576;28;20042;-75
2022/11/02 10:04:10;;;;;;;13.02;1.20;;;15.00;99.90;;;;;;4974222;28;20050;-72
2022/11/02 10:06:46;;;;;;;13.10;0.93;;;14.70;99.90;;;;;;4972904;28;20054;-73
2022/11/02 10:09:22;;;;;;;7.88;0.73;;;14.30;99.90;;;;;;4973988;28;20050;-72
2022/11/02 10:12:07;;;;;;;14.50;1.48;;;14.00;99.90;;;;;;4973159;28;20066;-73
2022/11/02 10:14:37;;;;;;;10.18;1.55;;;14.10;99.90;;;;;;4974399;28;20046;-71
2022/11/02 10:17:17;;;;;;;7.88;0.80;;;14.40;99.90;;;;;;4974244;28;20141;-74
2022/11/02 10:19:50;;;;;;;12.32;1.10;;;14.20;99.90;;;;;;4973237;28;20057;-73
2022/11/02 10:22:15;;;;;;;10.27;1.10;;;13.70;99.90;;;;;;4972797;28;20042;-72
2022/11/02 10:24:45;;;;;;;13.98;1.02;;;13.30;99.90;;;;;;4974055;28;20050;-73
2022/11/02 10:27:22;;;;;;;14.02;1.40;;;13.30;99.90;;;;;;4973836;28;20042;-74
2022/11/02 10:30:00;;;;;;;8.77;0.90;;;13.20;99.90;;;;;;4972061;28;20089;-76
2022/11/02 10:32:26;;;;;;;11.23;0.95;;;13.50;99.90;;;;;;4971537;28;20446;-74
2022/11/02 10:34:52;;;;;;;8.95;0.95;;;13.00;99.90;;;;;;4969634;28;20050;-72
2022/11/02 10:37:41;;;;;;;10.43;0.95;;;13.10;99.90;;;;;;4970724;28;20050;-74
2022/11/02 10:40:34;;;;;;;11.43;0.77;;;13.50;99.90;;;;;;4959733;28;20133;-73
2022/11/02 10:43:24;;;;;;;6.05;0.60;;;14.20;99.90;;;;;;4971726;28;20050;-76
2022/11/02 10:46:07;;;;;;;11.35;1.05;;;14.80;99.90;;;;;;4969779;28;20034;-72
2022/11/02 10:48:42;;;;;;;8.63;0.75;;;15.40;99.90;;;;;;4973288;28;20050;-72
2022/11/02 10:51:13;;;;;;;8.05;0.50;;;15.30;99.90;;;;;;4970584;28;20066;-74
2022/11/02 10:53:42;;;;;;;7.95;0.70;;;15.30;99.90;;;;;;4970754;28;20061;-73
2022/11/02 10:56:14;;;;;;;10.50;1.02;;;15.40;99.90;;;;;;4969996;28;20042;-73
2022/11/02 10:58:49;;;;;;;6.85;0.63;;;15.50;99.90;;;;;;4969982;28;20046;-77
2022/11/02 11:01:15;;;;;;;9.32;0.73;;;15.90;99.90;;;;;;4953232;28;20381;-78
2022/11/02 11:03:56;;;;;;;13.43;1.17;;;16.00;99.90;;;;;;4968611;28;20129;-75
2022/11/02 11:06:28;;;;;;;7.75;0.70;;;15.70;99.90;;;;;;4970074;28;20061;-73
2022/11/02 11:08:59;;;;;;;14.25;1.33;;;15.90;99.90;;;;;;4969205;28;20054;-73
2022/11/02 11:11:29;;;;;;;11.68;1.20;;;16.20;99.90;;;;;;4968626;28;20102;-75
2022/11/02 11:14:02;;;;;;;8.80;0.90;;;16.50;99.90;;;;;;4968671;28;20649;-73
2022/11/02 11:16:38;;;;;;;10.35;1.02;;;17.20;99.90;;;;;;4969618;28;20409;-73
2022/11/02 11:19:15;;;;;;;7.75;1.00;;;17.10;99.90;;;;;;4956311;28;20614;-74
2022/11/02 11:21:42;;;;;;;6.25;0.70;;;17.20;99.90;;;;;;4968979;28;20157;-74
2022/11/02 11:24:21;;;;;;;5.10;0.55;;;16.90;99.90;;;;;;4968963;28;20057;-73
2022/11/02 11:27:05;;;;;;;6.90;0.60;;;16.20;99.90;;;;;;4974370;28;20417;-75
2022/11/02 11:29:32;;;;;;;;;;;15.60;99.90;;;;;;4975915;28;20042;-74
2022/11/02 11:32:00;;;;;;;9.40;1.08;;;15.50;99.90;;;;;;4967717;28;19996;-74
2022/11/02 11:34:32;;;;;;;10.18;0.90;;;15.90;99.90;;;;;;4950217;28;20098;-77
2022/11/02 11:37:13;;;;;;;7.40;0.57;;;16.10;99.90;;;;;;4970168;28;20958;-74
2022/11/02 11:39:43;;;;;;;10.98;0.90;;;15.90;99.90;;;;;;4968310;28;20502;-74
2022/11/02 11:42:25;;;;;;;10.13;1.10;;;16.00;99.90;;;;;;4967784;28;20683;-77
2022/11/02 11:45:02;;;;;;;9.57;0.63;;;15.80;99.90;;;;;;4969997;28;20161;-75
2022/11/02 11:47:36;;;;;;;7.50;0.60;;;15.70;99.90;;;;;;4968524;28;20050;-76
2022/11/02 11:50:06;;;;;;;7.00;0.65;;;15.00;99.90;;;;;;4968110;28;20090;-74
2022/11/02 11:52:32;;;;;;;8.13;0.55;;;14.70;99.90;;;;;;4968196;28;20130;-74
2022/11/02 11:55:24;;;;;;;7.75;0.57;;;14.90;99.90;;;;;;4968318;28;20054;-75
2022/11/02 11:58:22;;;;;;;7.65;0.50;;;14.50;99.90;;;;;;4969655;28;20513;-77
2022/11/02 12:01:11;;;;;;;6.88;0.70;;;14.10;99.90;;;;;;4972560;28;20053;-74
2022/11/02 12:03:54;;;;;;;10.63;1.42;;;14.20;99.90;;;;;;4968750;28;20050;-76
2022/11/02 12:06:32;;;;;;;;;;;14.60;99.90;;;;;;4970164;28;20149;-74
2022/11/02 12:09:02;;;;;;;11.93;0.80;;;14.90;99.90;;;;;;4968609;28;19925;-74
2022/11/02 12:11:56;;;;;;;7.85;0.43;;;14.70;99.90;;;;;;4969043;28;20061;-73
2022/11/02 12:14:32;;;;;;;8.85;0.90;;;15.00;99.90;;;;;;4968619;28;20057;-73
2022/11/02 12:17:32;;;;;;;6.85;0.50;;;15.50;99.90;;;;;;4969609;28;20396;-74
2022/11/02 12:20:19;;;;;;;8.18;0.73;;;15.60;99.90;;;;;;4967712;28;20046;-74
2022/11/02 12:23:13;;;;;;;8.05;0.82;;;16.00;99.90;;;;;;4951271;28;20046;-76
2022/11/02 12:25:51;;;;;;;7.63;0.70;;;16.10;99.90;;;;;;4969705;28;20124;-74
2022/11/02 12:28:25;;;;;;;8.05;0.70;;;16.30;99.90;;;;;;4952013;28;20398;-73
2022/11/02 12:31:35;;;;;;;9.65;0.80;;;16.50;99.90;;;;;;4971504;28;20498;-74
2022/11/02 12:34:20;;;;;;;6.60;0.75;;;16.70;99.90;;;;;;4946807;28;20614;-71
2022/11/02 12:36:57;;;;;;;7.70;0.70;;;16.40;99.90;;;;;;4971815;28;20045;-74
2022/11/02 12:39:59;;;;;;;6.22;0.40;;;16.60;99.90;;;;;;4969648;28;20046;-73
2022/11/02 12:42:31;;;;;;;7.95;0.50;;;16.50;99.90;;;;;;4970443;28;20050;-73
2022/11/02 12:45:21;;;;;;;7.20;0.68;;;16.80;99.90;;;;;;4969768;28;20553;-75
2022/11/02 12:47:58;;;;;;;4.63;0.40;;;16.90;99.20;;;;;;4971706;28;20046;-74
2022/11/02 12:50:48;;;;;;;5.82;0.50;;;16.70;95.70;;;;;;4971377;28;20053;-73
2022/11/02 12:53:35;;;;;;;7.75;0.65;;;16.70;95.00;;;;;;4970353;28;20743;-76
2022/11/02 12:56:03;;;;;;;5.88;0.50;;;16.70;94.60;;;;;;4969571;28;20568;-78
2022/11/02 12:58:39;;;;;;;6.88;0.60;;;16.80;94.90;;;;;;4963682;28;20701;-73
2022/11/02 13:01:16;;;;;;;5.55;0.40;;;16.40;96.70;;;;;;4967780;28;20093;-74
2022/11/02 13:03:53;;;;;;;7.50;0.77;;;16.80;97.20;;;;;;4967408;28;20056;-73
2022/11/02 13:06:30;;;;;;;6.97;0.80;;;16.50;97.10;;;;;;4967164;28;20687;-72
2022/11/02 13:09:21;;;;;;;7.00;0.80;;;16.40;98.50;;;;;;4966866;28;20042;-74
2022/11/02 13:11:53;;;;;;;5.38;0.40;;;16.40;99.20;;;;;;4963023;28;20062;-73
2022/11/02 13:14:21;;;;;;;8.00;0.65;;;16.40;98.90;;;;;;4980276;28;20054;-73
2022/11/02 13:17:00;;;;;;;7.68;0.50;;;16.30;98.90;;;;;;4966654;28;20050;-73
2022/11/02 13:19:37;;;;;;;7.38;0.73;;;16.30;98.60;;;;;;4966714;28;21093;-73
2022/11/02 13:22:05;;;;;;;5.93;0.50;;;16.50;99.10;;;;;;4950280;28;20054;-74